createdAt,value
2019-05-03T00:02:28.311Z,0.00
2019-05-03T00:05:03.428Z,0.60
2019-05-03T00:07:33.655Z,0.00
2019-05-03T00:10:03.835Z,0.80
2019-05-03T00:12:34.461Z,0.00
2019-05-03T00:15:19.064Z,1.00
2019-05-03T00:17:49.614Z,1.00
2019-05-03T00:20:19.469Z,0.00
2019-05-03T00:22:52.401Z,0.40
2019-05-03T00:25:22.877Z,1.40
2019-05-03T00:27:53.017Z,0.00
2019-05-03T00:30:24.426Z,0.00
2019-05-03T00:32:55.472Z,0.00
2019-05-03T00:35:44.066Z,2.00
2019-05-03T00:38:15.969Z,1.00
2019-05-03T00:40:46.227Z,1.40
2019-05-03T00:43:16.474Z,0.00
2019-05-03T00:45:47.184Z,0.80
2019-05-03T00:48:17.825Z,0.00
2019-05-03T00:50:48.252Z,1.00
2019-05-03T00:53:18.477Z,4.20
2019-05-03T00:55:48.896Z,1.80
2019-05-03T00:58:18.940Z,1.00
2019-05-03T01:00:49.450Z,0.00
2019-05-03T01:03:21.804Z,0.00
2019-05-03T01:05:52.899Z,2.00
2019-05-03T01:08:23.410Z,0.20
2019-05-03T01:10:53.731Z,1.60
2019-05-03T01:13:24.056Z,1.00
2019-05-03T01:15:58.937Z,0.00
2019-05-03T01:18:29.104Z,0.60
2019-05-03T01:20:59.816Z,0.60
2019-05-03T01:23:30.050Z,1.00
2019-05-03T01:26:02.313Z,1.80
2019-05-03T01:28:32.485Z,2.00
2019-05-03T01:31:02.721Z,1.00
2019-05-03T01:33:33.070Z,0.80
2019-05-03T01:36:03.392Z,1.40
2019-05-03T01:38:33.657Z,1.60
2019-05-03T01:41:04.147Z,2.40
2019-05-03T01:43:34.284Z,2.60
2019-05-03T01:46:04.902Z,1.20
2019-05-03T01:48:55.016Z,2.00
2019-05-03T01:51:30.440Z,1.20
2019-05-03T01:54:01.703Z,1.40
2019-05-03T01:56:32.119Z,2.00
2019-05-03T01:59:03.338Z,5.80
2019-05-03T02:01:38.605Z,8.20
2019-05-03T02:04:16.460Z,5.00
2019-05-03T02:06:46.559Z,3.00
2019-05-03T02:09:16.744Z,3.80
2019-05-03T02:11:46.971Z,5.20
2019-05-03T02:14:17.196Z,11.80
2019-05-03T02:16:47.427Z,6.20
2019-05-03T02:19:17.559Z,8.60
2019-05-03T02:21:47.796Z,11.60
2019-05-03T02:24:17.869Z,8.00
2019-05-03T02:26:48.658Z,9.00
2019-05-03T02:29:18.803Z,10.20
2019-05-03T02:31:49.186Z,13.20
2019-05-03T02:34:19.952Z,7.40
2019-05-03T02:36:53.765Z,8.60
2019-05-03T02:39:25.156Z,9.00
2019-05-03T02:42:05.789Z,9.20
2019-05-03T02:44:27.712Z,9.80
2019-05-03T02:47:06.508Z,7.00
2019-05-03T02:49:38.778Z,6.40
2019-05-03T02:52:11.148Z,9.40
2019-05-03T02:54:41.459Z,11.00
2019-05-03T02:57:11.948Z,9.00
2019-05-03T02:59:42.074Z,9.20
2019-05-03T03:02:14.803Z,10.40
2019-05-03T03:04:45.964Z,6.00
2019-05-03T03:07:16.818Z,10.60
2019-05-03T03:09:47.823Z,9.20
2019-05-03T03:12:19.856Z,10.80
2019-05-03T03:14:52.086Z,9.00
2019-05-03T03:17:25.424Z,7.20
2019-05-03T03:19:58.132Z,8.60
2019-05-03T03:22:30.627Z,5.20
2019-05-03T03:25:05.468Z,10.00
2019-05-03T03:27:37.837Z,11.20
2019-05-03T03:30:29.638Z,10.00
2019-05-03T03:33:02.334Z,7.20
2019-05-03T03:35:37.615Z,8.40
2019-05-03T03:38:07.993Z,11.60
2019-05-03T03:40:39.684Z,9.40
2019-05-03T03:43:11.300Z,9.00
2019-05-03T03:45:45.480Z,16.80
2019-05-03T03:48:18.798Z,18.60
2019-05-03T03:50:51.237Z,19.20
2019-05-03T03:53:26.153Z,10.60
2019-05-03T03:55:56.622Z,17.00
2019-05-03T03:58:27.290Z,11.20
2019-05-03T04:00:58.301Z,10.40
2019-05-03T04:03:28.432Z,23.20
2019-05-03T04:05:58.932Z,12.40
2019-05-03T04:08:30.160Z,15.00
2019-05-03T04:11:00.525Z,16.20
2019-05-03T04:13:31.904Z,18.80
2019-05-03T04:16:05.495Z,10.80
2019-05-03T04:18:41.235Z,15.60
2019-05-03T04:21:11.721Z,13.40
2019-05-03T04:23:42.241Z,18.00
2019-05-03T04:26:16.015Z,23.20
2019-05-03T04:28:45.456Z,17.00
2019-05-03T04:31:15.990Z,22.00
2019-05-03T04:33:46.831Z,20.60
2019-05-03T04:36:16.974Z,24.40
2019-05-03T04:38:47.507Z,13.80
2019-05-03T04:41:18.107Z,21.00
2019-05-03T04:43:48.589Z,13.80
2019-05-03T04:46:21.228Z,17.60
2019-05-03T04:48:52.080Z,18.80
2019-05-03T04:51:22.411Z,13.40
2019-05-03T04:53:55.705Z,9.20
2019-05-03T04:56:26.237Z,11.80
2019-05-03T04:58:56.547Z,10.80
2019-05-03T05:01:27.299Z,10.00
2019-05-03T05:03:57.650Z,7.60
2019-05-03T05:06:27.609Z,11.00
2019-05-03T05:08:57.629Z,13.20
2019-05-03T05:11:27.865Z,15.60
2019-05-03T05:13:57.947Z,11.60
2019-05-03T05:16:28.337Z,10.80
2019-05-03T05:19:00.156Z,14.20
2019-05-03T05:21:35.539Z,13.40
2019-05-03T05:24:06.532Z,16.20
2019-05-03T05:26:38.596Z,15.40
2019-05-03T05:29:23.509Z,15.20
2019-05-03T05:31:54.923Z,12.20
2019-05-03T05:34:25.276Z,16.00
2019-05-03T05:36:56.055Z,19.00
2019-05-03T05:39:26.675Z,20.00
2019-05-03T05:41:57.140Z,15.80
2019-05-03T05:44:27.638Z,17.80
2019-05-03T05:47:04.707Z,18.00
2019-05-03T05:49:44.364Z,19.40
2019-05-03T05:52:15.500Z,12.60
2019-05-03T05:54:48.388Z,14.20
2019-05-03T05:57:26.572Z,8.80
2019-05-03T06:00:01.416Z,10.60
2019-05-03T06:02:32.213Z,9.80
2019-05-03T06:05:02.305Z,19.80
2019-05-03T06:07:37.952Z,11.60
2019-05-03T06:10:10.679Z,11.00
2019-05-03T06:12:42.228Z,16.40
2019-05-03T06:15:17.677Z,7.20
2019-05-03T06:17:49.591Z,14.60
2019-05-03T06:20:24.980Z,8.20
2019-05-03T06:23:00.326Z,9.60
2019-05-03T06:25:32.109Z,12.20
2019-05-03T06:28:16.964Z,16.80
2019-05-03T06:30:37.700Z,15.00
2019-05-03T06:33:08.286Z,15.00
2019-05-03T06:35:38.452Z,12.60
2019-05-03T06:38:08.674Z,17.80
2019-05-03T06:40:38.686Z,18.60
2019-05-03T06:43:12.911Z,12.00
2019-05-03T06:45:46.667Z,13.40
2019-05-03T06:48:17.157Z,14.80
2019-05-03T06:50:45.469Z,14.20
2019-05-03T06:53:15.662Z,10.00
2019-05-03T06:55:48.480Z,9.00
2019-05-03T06:58:30.470Z,8.40
2019-05-03T07:00:50.883Z,8.60
2019-05-03T07:03:25.633Z,10.40
2019-05-03T07:06:14.986Z,16.20
2019-05-03T07:08:57.142Z,12.60
2019-05-03T07:11:27.586Z,9.40
2019-05-03T07:13:58.105Z,4.80
2019-05-03T07:16:28.330Z,11.00
2019-05-03T07:18:58.889Z,15.20
2019-05-03T07:21:28.971Z,8.20
2019-05-03T07:23:59.300Z,8.40
2019-05-03T07:26:29.440Z,9.40
2019-05-03T07:29:00.482Z,12.60
2019-05-03T07:31:30.758Z,11.60
2019-05-03T07:34:00.989Z,9.60
2019-05-03T07:36:31.757Z,10.40
2019-05-03T07:39:02.139Z,9.60
2019-05-03T07:41:32.296Z,12.00
2019-05-03T07:44:02.886Z,9.80
2019-05-03T07:46:34.925Z,7.80
2019-05-03T07:49:05.258Z,8.20
2019-05-03T07:51:36.309Z,3.00
2019-05-03T07:54:06.312Z,16.40
2019-05-03T07:56:38.722Z,13.20
2019-05-03T07:59:08.882Z,16.80
2019-05-03T08:01:41.175Z,10.60
2019-05-03T08:04:11.200Z,17.60
2019-05-03T08:06:44.442Z,12.20
2019-05-03T08:09:15.313Z,13.00
2019-05-03T08:11:45.556Z,19.50
2019-05-03T08:14:18.102Z,16.00
2019-05-03T08:16:47.749Z,16.00
2019-05-03T08:19:17.851Z,13.00
2019-05-03T08:21:48.172Z,17.20
2019-05-03T08:24:18.326Z,11.40
2019-05-03T08:26:49.249Z,8.60
2019-05-03T08:29:19.841Z,8.00
2019-05-03T08:32:08.652Z,7.20
2019-05-03T08:34:55.460Z,9.80
2019-05-03T08:37:28.051Z,1.80
2019-05-03T08:39:58.339Z,4.00
2019-05-03T08:42:28.660Z,4.00
2019-05-03T08:44:59.203Z,3.20
2019-05-03T08:47:30.946Z,3.80
2019-05-03T08:50:01.176Z,3.40
2019-05-03T08:52:31.712Z,5.60
2019-05-03T08:55:02.445Z,5.20
2019-05-03T08:57:32.682Z,5.20
2019-05-03T09:00:05.341Z,6.80
2019-05-03T09:02:35.568Z,3.60
2019-05-03T09:05:06.876Z,6.20
2019-05-03T09:07:37.374Z,1.00
2019-05-03T09:10:12.567Z,3.80
2019-05-03T09:13:03.251Z,6.80
2019-05-03T09:15:32.575Z,0.60
2019-05-03T09:18:04.793Z,4.00
2019-05-03T09:20:35.594Z,1.80
2019-05-03T09:23:06.037Z,3.60
2019-05-03T09:25:36.228Z,4.40
2019-05-03T09:28:06.687Z,1.40
2019-05-03T09:30:37.332Z,1.00
2019-05-03T09:33:09.149Z,1.40
2019-05-03T09:35:39.481Z,0.80
2019-05-03T09:38:10.114Z,0.60
2019-05-03T09:40:40.240Z,1.00
2019-05-03T09:43:11.058Z,1.00
2019-05-03T09:45:41.688Z,3.80
2019-05-03T09:48:11.923Z,1.00
2019-05-03T09:50:44.960Z,3.20
2019-05-03T09:53:16.657Z,4.80
2019-05-03T09:55:46.880Z,1.00
2019-05-03T09:58:17.426Z,0.20
2019-05-03T10:00:48.780Z,1.00
2019-05-03T10:03:19.598Z,0.00
2019-05-03T10:05:50.324Z,0.40
2019-05-03T10:08:20.666Z,4.40
2019-05-03T10:11:11.690Z,0.80
2019-05-03T10:13:42.194Z,0.20
2019-05-03T10:16:15.596Z,1.00
2019-05-03T10:18:46.245Z,2.60
2019-05-03T10:21:16.668Z,0.00
2019-05-03T10:23:46.892Z,3.00
2019-05-03T10:26:17.484Z,1.00
2019-05-03T10:28:47.861Z,0.40
2019-05-03T10:31:17.968Z,1.80
2019-05-03T10:33:52.992Z,1.00
2019-05-03T10:36:24.992Z,1.00
2019-05-03T10:38:55.517Z,3.80
2019-05-03T10:41:26.553Z,0.00
2019-05-03T10:43:57.125Z,1.00
2019-05-03T10:46:28.257Z,3.00
2019-05-03T10:48:59.217Z,1.00
2019-05-03T10:51:31.489Z,1.00
2019-05-03T10:54:01.815Z,2.20
2019-05-03T10:56:35.815Z,6.00
2019-05-03T10:59:09.979Z,0.40
2019-05-03T11:01:49.258Z,0.00
2019-05-03T11:04:20.009Z,2.20
2019-05-03T11:06:50.361Z,1.00
2019-05-03T11:09:21.678Z,0.00
2019-05-03T11:11:52.283Z,1.00
2019-05-03T11:14:22.314Z,0.00
2019-05-03T11:16:52.536Z,3.00
2019-05-03T11:19:25.188Z,1.20
2019-05-03T11:21:54.905Z,1.40
2019-05-03T11:24:27.179Z,1.20
2019-05-03T11:27:00.148Z,1.00
2019-05-03T11:29:30.196Z,0.00
2019-05-03T11:32:01.923Z,1.00
2019-05-03T11:34:50.137Z,1.80
2019-05-03T11:37:22.209Z,3.00
2019-05-03T11:39:52.904Z,1.00
2019-05-03T11:42:24.526Z,1.80
2019-05-03T11:44:54.889Z,4.60
2019-05-03T11:47:27.527Z,3.00
2019-05-03T11:49:57.180Z,1.40
2019-05-03T11:52:28.254Z,1.00
2019-05-03T11:54:58.543Z,1.40
2019-05-03T11:57:29.164Z,1.00
2019-05-03T11:59:59.493Z,0.80
2019-05-03T12:02:31.789Z,0.00
2019-05-03T12:05:05.018Z,3.60
2019-05-03T12:07:39.695Z,3.80
2019-05-03T12:10:16.400Z,1.80
2019-05-03T12:12:44.573Z,0.80
2019-05-03T12:15:15.363Z,1.00
2019-05-03T12:17:54.049Z,0.00
2019-05-03T12:20:20.350Z,1.80
2019-05-03T12:22:51.965Z,1.00
2019-05-03T12:25:25.174Z,1.00
2019-05-03T12:27:54.694Z,0.40
2019-05-03T12:30:27.814Z,0.60
2019-05-03T12:32:57.588Z,1.00
2019-05-03T12:35:27.913Z,3.00
2019-05-03T12:37:58.338Z,2.20
2019-05-03T12:40:29.151Z,1.00
2019-05-03T12:42:59.380Z,0.60
2019-05-03T12:45:30.305Z,1.00
2019-05-03T12:48:00.437Z,1.00
2019-05-03T12:50:31.109Z,0.00
2019-05-03T12:53:01.588Z,1.40
2019-05-03T12:55:32.725Z,0.00
2019-05-03T12:58:02.984Z,1.00
2019-05-03T13:00:38.619Z,2.60
2019-05-03T13:03:10.587Z,1.00
2019-05-03T13:05:40.981Z,4.40
2019-05-03T13:08:36.724Z,0.20
2019-05-03T13:11:07.238Z,1.40
2019-05-03T13:13:37.360Z,0.00
2019-05-03T13:16:08.097Z,0.40
2019-05-03T13:18:38.816Z,1.20
2019-05-03T13:21:09.252Z,1.00
2019-05-03T13:23:39.481Z,1.00
2019-05-03T13:26:09.829Z,0.00
2019-05-03T13:28:40.035Z,0.00
2019-05-03T13:31:10.801Z,0.00
2019-05-03T13:33:41.082Z,0.40
2019-05-03T13:36:11.818Z,0.00
2019-05-03T13:38:42.169Z,1.00
2019-05-03T13:41:12.656Z,0.00
2019-05-03T13:43:42.878Z,0.00
2019-05-03T13:46:13.037Z,0.00
2019-05-03T13:48:46.654Z,0.20
2019-05-03T13:51:15.385Z,1.00
2019-05-03T13:53:45.545Z,1.80
2019-05-03T13:56:16.350Z,1.60
2019-05-03T13:58:46.872Z,0.00
2019-05-03T14:01:17.117Z,0.00
2019-05-03T14:03:47.567Z,0.60
2019-05-03T14:06:18.289Z,0.00
2019-05-03T14:08:48.832Z,0.60
2019-05-03T14:11:19.003Z,1.00
2019-05-03T14:13:49.965Z,0.00
2019-05-03T14:16:20.609Z,0.00
2019-05-03T14:18:52.350Z,0.00
2019-05-03T14:21:24.531Z,0.00
2019-05-03T14:24:10.708Z,0.00
2019-05-03T14:26:41.821Z,0.00
2019-05-03T14:29:11.965Z,0.00
2019-05-03T14:31:42.225Z,1.00
2019-05-03T14:34:12.120Z,0.00
2019-05-03T14:36:42.412Z,0.80
2019-05-03T14:39:14.853Z,0.00
2019-05-03T14:41:46.790Z,0.80
2019-05-03T14:44:18.006Z,0.20
2019-05-03T14:46:49.053Z,0.00
2019-05-03T14:49:19.889Z,2.40
2019-05-03T14:51:50.521Z,1.40
2019-05-03T14:54:22.704Z,3.00
2019-05-03T14:56:57.338Z,1.00
2019-05-03T14:59:45.872Z,0.00
2019-05-03T15:02:18.655Z,0.00
2019-05-03T15:04:49.164Z,0.60
2019-05-03T15:07:20.417Z,2.60
2019-05-03T15:09:50.932Z,0.40
2019-05-03T15:12:21.576Z,0.00
2019-05-03T15:14:51.896Z,0.80
2019-05-03T15:17:24.285Z,2.60
2019-05-03T15:19:54.720Z,0.00
2019-05-03T15:22:25.362Z,2.40
2019-05-03T15:24:55.957Z,1.00
2019-05-03T15:27:26.112Z,0.00
2019-05-03T15:29:56.704Z,0.00
2019-05-03T15:32:27.316Z,2.60
2019-05-03T15:34:57.385Z,1.40
2019-05-03T15:37:27.700Z,1.00
2019-05-03T15:39:58.191Z,0.00
2019-05-03T15:42:28.766Z,0.00
2019-05-03T15:45:19.151Z,0.20
2019-05-03T15:48:07.712Z,2.60
2019-05-03T15:50:38.036Z,0.60
2019-05-03T15:53:08.628Z,0.00
2019-05-03T15:55:39.180Z,0.00
2019-05-03T15:58:09.412Z,0.00
2019-05-03T16:00:39.853Z,0.00
2019-05-03T16:03:11.337Z,0.80
2019-05-03T16:05:41.608Z,0.20
2019-05-03T16:08:11.708Z,1.00
2019-05-03T16:10:42.556Z,0.00
2019-05-03T16:13:14.329Z,0.40
2019-05-03T16:15:45.164Z,0.00
2019-05-03T16:18:15.504Z,4.00
2019-05-03T16:20:45.618Z,2.20
2019-05-03T16:23:16.429Z,2.20
2019-05-03T16:25:47.263Z,0.80
2019-05-03T16:28:29.170Z,2.60
2019-05-03T16:31:01.752Z,1.40
2019-05-03T16:33:32.270Z,1.00
2019-05-03T16:36:02.606Z,0.20
2019-05-03T16:38:32.845Z,0.00
2019-05-03T16:41:04.999Z,1.60
2019-05-03T16:43:34.993Z,0.80
2019-05-03T16:46:05.692Z,0.20
2019-05-03T16:48:36.268Z,1.00
2019-05-03T16:51:06.563Z,1.00
2019-05-03T16:53:36.601Z,2.20
2019-05-03T16:56:07.421Z,1.00
2019-05-03T16:58:38.067Z,0.00
2019-05-03T17:01:08.358Z,1.00
2019-05-03T17:03:43.040Z,0.00
2019-05-03T17:06:21.261Z,1.00
2019-05-03T17:09:08.669Z,0.00
2019-05-03T17:11:39.280Z,0.20
2019-05-03T17:14:09.395Z,0.40
2019-05-03T17:16:39.604Z,0.00
2019-05-03T17:19:10.248Z,0.60
2019-05-03T17:21:40.365Z,1.00
2019-05-03T17:24:11.629Z,0.00
2019-05-03T17:26:42.188Z,0.00
2019-05-03T17:29:13.276Z,0.00
2019-05-03T17:31:44.471Z,0.40
2019-05-03T17:34:14.675Z,0.20
2019-05-03T17:36:45.092Z,0.00
2019-05-03T17:39:16.917Z,1.00
2019-05-03T17:41:48.877Z,0.40
2019-05-03T17:44:26.297Z,1.60
2019-05-03T17:46:56.832Z,1.40
2019-05-03T17:49:27.053Z,0.40
2019-05-03T17:52:02.088Z,1.00
2019-05-03T17:54:36.630Z,1.00
2019-05-03T17:57:11.337Z,1.80
2019-05-03T17:59:44.466Z,2.00
2019-05-03T18:02:22.357Z,0.20
2019-05-03T18:04:55.002Z,0.60
2019-05-03T18:07:27.154Z,0.00
2019-05-03T18:09:58.757Z,0.00
2019-05-03T18:12:29.200Z,0.00
2019-05-03T18:14:59.671Z,0.00
2019-05-03T18:17:30.228Z,0.00
2019-05-03T18:20:00.309Z,0.00
2019-05-03T18:22:30.553Z,0.00
2019-05-03T18:25:00.788Z,1.40
2019-05-03T18:27:31.095Z,4.00
2019-05-03T18:30:01.199Z,0.00
2019-05-03T18:32:31.542Z,0.40
2019-05-03T18:35:01.675Z,0.00
2019-05-03T18:37:31.565Z,1.00
2019-05-03T18:40:02.237Z,0.00
2019-05-03T18:42:35.274Z,0.60
2019-05-03T18:45:15.820Z,0.60
2019-05-03T18:47:46.094Z,0.00
2019-05-03T18:50:16.508Z,2.80
2019-05-03T18:52:46.721Z,2.00
2019-05-03T18:55:17.737Z,0.40
2019-05-03T18:57:48.569Z,0.00
2019-05-03T19:00:21.089Z,0.00
2019-05-03T19:02:51.409Z,1.00
2019-05-03T19:05:24.355Z,0.60
2019-05-03T19:08:07.317Z,1.00
2019-05-03T19:10:51.975Z,1.00
2019-05-03T19:13:30.299Z,0.40
2019-05-03T19:16:02.051Z,1.00
2019-05-03T19:18:35.274Z,0.00
2019-05-03T19:21:05.665Z,0.20
2019-05-03T19:23:35.913Z,1.20
2019-05-03T19:26:06.387Z,2.00
2019-05-03T19:28:36.920Z,1.00
2019-05-03T19:31:07.146Z,1.40
2019-05-03T19:33:37.659Z,1.00
2019-05-03T19:36:08.200Z,0.20
2019-05-03T19:38:38.450Z,1.20
2019-05-03T19:41:08.534Z,0.60
2019-05-03T19:43:40.378Z,0.40
2019-05-03T19:46:11.176Z,2.00
2019-05-03T19:48:41.386Z,1.80
2019-05-03T19:51:11.608Z,0.40
2019-05-03T19:53:49.200Z,1.00
2019-05-03T19:56:19.903Z,0.80
2019-05-03T19:58:51.241Z,0.00
2019-05-03T20:01:24.920Z,1.00
2019-05-03T20:03:56.838Z,0.80
2019-05-03T20:06:34.750Z,1.60
2019-05-03T20:09:08.833Z,0.20
2019-05-03T20:11:39.263Z,2.00
2019-05-03T20:14:09.994Z,1.00
2019-05-03T20:16:40.272Z,0.60
2019-05-03T20:19:18.952Z,0.00
2019-05-03T20:21:42.188Z,0.40
2019-05-03T20:24:14.778Z,0.00
2019-05-03T20:26:45.094Z,0.00
2019-05-03T20:29:16.331Z,0.00
2019-05-03T20:34:36.428Z,0.00
2019-05-03T20:37:06.016Z,0.00
2019-05-03T20:39:36.205Z,2.00
2019-05-03T20:42:06.525Z,1.00
2019-05-03T20:44:47.604Z,0.00
2019-05-03T20:47:22.834Z,0.00
2019-05-03T20:50:11.485Z,0.00
2019-05-03T20:52:41.816Z,0.00
2019-05-03T20:55:12.066Z,0.00
2019-05-03T20:57:44.279Z,0.80
2019-05-03T21:00:15.055Z,0.60
2019-05-03T21:02:53.483Z,0.20
2019-05-03T21:05:26.716Z,0.00
2019-05-03T21:07:49.230Z,1.00
2019-05-03T21:10:20.415Z,0.00
2019-05-03T21:12:50.567Z,0.00
2019-05-03T21:15:26.005Z,0.00
2019-05-03T21:18:04.829Z,0.00
2019-05-03T21:20:40.161Z,0.00
2019-05-03T21:23:11.984Z,0.00
2019-05-03T21:26:09.048Z,0.60
2019-05-03T21:28:31.830Z,2.00
2019-05-03T21:31:02.140Z,0.00
2019-05-03T21:33:32.309Z,0.00
2019-05-03T21:36:04.594Z,0.00
2019-05-03T21:38:35.472Z,1.00
2019-05-03T21:41:06.268Z,0.00
2019-05-03T21:43:36.916Z,0.40
2019-05-03T21:46:09.100Z,0.20
2019-05-03T21:48:56.337Z,0.00
2019-05-03T21:51:27.537Z,0.00
2019-05-03T21:53:58.073Z,0.00
2019-05-03T21:56:28.317Z,0.00
2019-05-03T21:58:58.536Z,0.00
2019-05-03T22:01:28.641Z,0.00
2019-05-03T22:03:59.267Z,0.00
2019-05-03T22:06:29.392Z,0.00
2019-05-03T22:08:59.705Z,1.00
2019-05-03T22:11:30.499Z,0.00
2019-05-03T22:14:02.257Z,0.80
2019-05-03T22:16:34.539Z,0.20
2019-05-03T22:19:05.809Z,0.00
2019-05-03T22:21:38.315Z,0.00
2019-05-03T22:24:26.974Z,0.00
2019-05-03T22:26:58.887Z,2.00
2019-05-03T22:29:30.049Z,1.00
2019-05-03T22:32:00.589Z,0.20
2019-05-03T22:34:31.110Z,0.60
2019-05-03T22:37:01.321Z,1.00
2019-05-03T22:39:31.573Z,0.00
2019-05-03T22:42:01.700Z,0.00
2019-05-03T22:44:32.389Z,0.00
2019-05-03T22:47:02.435Z,0.00
2019-05-03T22:49:34.624Z,0.20
2019-05-03T22:52:05.007Z,0.20
2019-05-03T22:54:35.276Z,0.00
2019-05-03T22:57:05.865Z,0.00
2019-05-03T22:59:35.984Z,0.80
2019-05-03T23:02:06.636Z,0.00
2019-05-03T23:04:36.728Z,0.00
2019-05-03T23:07:06.953Z,0.00
2019-05-03T23:09:37.002Z,0.00
2019-05-03T23:12:07.806Z,0.00
2019-05-03T23:14:37.935Z,0.00
2019-05-03T23:17:08.184Z,0.00
2019-05-03T23:19:39.960Z,0.20
2019-05-03T23:22:15.408Z,0.40
2019-05-03T23:24:45.983Z,2.00
2019-05-03T23:27:16.128Z,0.00
2019-05-03T23:29:46.365Z,0.00
2019-05-03T23:32:16.548Z,0.00
2019-05-03T23:34:46.779Z,0.00
2019-05-03T23:37:17.135Z,0.00
2019-05-03T23:39:47.569Z,0.00
2019-05-03T23:42:17.771Z,0.80
2019-05-03T23:44:47.988Z,0.80
2019-05-03T23:47:25.081Z,0.00
2019-05-03T23:49:55.450Z,2.00
2019-05-03T23:52:27.181Z,3.00
2019-05-03T23:54:59.033Z,2.00
2019-05-03T23:57:29.923Z,1.00
